Island Heights, New Jersey
Current Conditions -  °F | °C
As of 5:55 AM on Tuesday 21 Oct 2014 (Local Time) from KMJX Reporting Station
Overcast Overcast  
Wind Chill: 48°   Ceiling: 12000
Heat Index: 48°   Visibility: 10mi
Dew Point: 45°   Wind: 0mph
Humidity: 87%   Direction: NA
Pressure: 29.89"   Gusts: NA
Location:  39.94°N, 74.15°W
Report Text: KMJX 210955Z AUTO 00000KT 10SM FEW095 OVC120 09/07 A2989 RMK AO1
Loading
Personal Weather Stations






























Interactive Weather Map New forecast layout! Learn more

10-Day Weather Forecast

Advertisements
Track Severe Weather on mobile